Time;durP1;ratioP1;P1;durP2;ratioP2;P2;SDS_P1;SDS_P2;PMS_P1;PMS_P2;Temp;Humidity;BMP_temperature;BMP_pressure;BME280_temperature;BME280_humidity;BME280_pressure;Samples;Min_cycle;Max_cycle;Signal;HPM_P1;HPM_P2
2022/03/07 00:01:35;;;;;;;13.57;7.53;;;;;;;-0.91;72.51;102574.28;5255971;28;20513;-76
2022/03/07 00:04:07;;;;;;;12.00;7.67;;;;;;;-0.97;72.99;102561.97;5255889;28;20056;-77
2022/03/07 00:06:39;;;;;;;10.63;8.00;;;;;;;-1.13;73.30;102560.16;5255939;28;20159;-78
2022/03/07 00:09:11;;;;;;;13.83;7.83;;;;;;;-1.17;73.21;102570.97;5254894;28;20584;-77
2022/03/07 00:11:44;;;;;;;15.68;8.40;;;;;;;-1.32;73.81;102570.88;5255628;28;20040;-75
2022/03/07 00:14:15;;;;;;;13.65;9.10;;;;;;;-1.32;74.10;102564.84;5255640;28;20021;-75
2022/03/07 00:16:47;;;;;;;11.80;7.83;;;;;;;-1.38;73.98;102567.91;5254544;28;20132;-76
2022/03/07 00:19:19;;;;;;;13.80;8.60;;;;;;;-1.41;74.44;102569.41;5255363;28;20037;-75
2022/03/07 00:21:50;;;;;;;14.25;8.70;;;;;;;-1.48;74.74;102561.31;5255279;28;20117;-76
2022/03/07 00:24:22;;;;;;;12.40;8.50;;;;;;;-1.51;74.59;102568.78;5255752;28;20484;-76
2022/03/07 00:26:53;;;;;;;15.20;8.57;;;;;;;-1.41;75.23;102564.28;5254059;28;20121;-76
2022/03/07 00:29:24;;;;;;;10.73;8.50;;;;;;;-1.47;75.78;102565.63;5255572;28;20029;-77
2022/03/07 00:31:56;;;;;;;15.20;10.07;;;;;;;-1.41;75.44;102566.84;5253630;28;20476;-74
2022/03/07 00:34:27;;;;;;;12.27;7.87;;;;;;;-1.42;75.21;102573.59;5255320;28;20021;-73
2022/03/07 00:36:58;;;;;;;18.83;8.53;;;;;;;-1.44;75.03;102570.06;5255501;28;20104;-77
2022/03/07 00:39:31;;;;;;;14.13;8.10;;;;;;;-1.54;74.99;102575.38;5255492;28;20071;-76
2022/03/07 00:42:03;;;;;;;13.55;8.18;;;;;;;-1.49;74.73;102579.13;5255503;28;20036;-73
2022/03/07 00:44:34;;;;;;;11.60;7.87;;;;;;;-1.51;75.18;102583.25;5254467;28;20033;-76
2022/03/07 00:47:06;;;;;;;15.50;8.53;;;;;;;-1.52;75.15;102576.38;5256141;28;20636;-74
2022/03/07 00:49:37;;;;;;;13.27;8.00;;;;;;;-1.53;75.13;102575.50;5255670;28;20036;-77
2022/03/07 00:52:08;;;;;;;11.97;8.37;;;;;;;-1.61;74.98;102576.66;5256079;28;20025;-77
2022/03/07 00:54:40;;;;;;;10.73;7.87;;;;;;;-1.64;75.64;102579.00;5255711;28;20059;-76
2022/03/07 00:57:11;;;;;;;15.67;8.23;;;;;;;-1.70;75.60;102581.16;5255820;28;20065;-75
2022/03/07 00:59:43;;;;;;;14.13;10.30;;;;;;;-1.81;76.19;102580.44;5255663;28;20025;-76
2022/03/07 01:02:14;;;;;;;14.73;8.27;;;;;;;-1.83;75.92;102575.22;5255017;28;20024;-75
2022/03/07 01:04:45;;;;;;;14.77;9.27;;;;;;;-1.85;75.92;102587.03;5255677;28;20549;-75
2022/03/07 01:07:17;;;;;;;10.63;9.03;;;;;;;-1.85;76.60;102578.47;5255401;28;20087;-74
2022/03/07 01:09:48;;;;;;;14.90;9.23;;;;;;;-1.91;76.76;102586.59;5254977;28;20044;-75
2022/03/07 01:12:20;;;;;;;13.03;9.63;;;;;;;-1.98;77.05;102589.56;5259361;28;20389;-77
2022/03/07 01:14:51;;;;;;;14.37;9.50;;;;;;;-2.06;77.39;102586.47;5262128;28;20098;-74
2022/03/07 01:17:22;;;;;;;14.00;9.60;;;;;;;-2.09;77.23;102585.38;5257542;28;20029;-77
2022/03/07 01:19:54;;;;;;;17.27;10.03;;;;;;;-2.14;77.58;102586.72;5254898;28;20429;-77
2022/03/07 01:22:25;;;;;;;18.63;10.10;;;;;;;-2.18;77.37;102587.31;5254468;28;20040;-75
2022/03/07 01:24:57;;;;;;;15.67;10.27;;;;;;;-2.21;78.06;102583.78;5254950;28;20033;-77
2022/03/07 01:27:29;;;;;;;16.58;9.23;;;;;;;-2.22;77.91;102584.53;5254757;28;20159;-76
2022/03/07 01:30:01;;;;;;;15.57;9.90;;;;;;;-2.23;78.52;102582.75;5254632;28;20029;-75
2022/03/07 01:32:32;;;;;;;15.63;10.33;;;;;;;-2.22;78.16;102581.09;5254071;28;20029;-75
2022/03/07 01:35:06;;;;;;;12.77;9.83;;;;;;;-2.20;78.31;102579.53;5254636;28;20307;-74
2022/03/07 01:37:39;;;;;;;17.23;10.23;;;;;;;-2.28;78.51;102573.03;5255055;28;20021;-75
2022/03/07 01:40:10;;;;;;;;;;;;;;;-2.29;77.26;102574.66;5255692;28;20041;-75
2022/03/07 01:42:43;;;;;;;13.93;9.20;;;;;;;-2.35;78.25;102571.72;5254774;28;19917;-75
2022/03/07 01:45:17;;;;;;;18.33;9.60;;;;;;;-2.40;79.22;102570.50;5255275;28;20029;-75
2022/03/07 01:47:48;;;;;;;18.27;10.27;;;;;;;-2.42;79.39;102579.72;5255127;28;20110;-75
2022/03/07 01:50:20;;;;;;;14.60;11.20;;;;;;;-2.49;79.11;102568.22;5257812;28;20631;-75
2022/03/07 01:52:53;;;;;;;15.07;9.93;;;;;;;-2.58;79.46;102571.03;5257223;28;20077;-74
2022/03/07 01:55:25;;;;;;;16.23;9.88;;;;;;;-2.59;79.82;102574.34;5259094;28;20635;-77
2022/03/07 01:57:56;;;;;;;25.77;10.97;;;;;;;-2.64;79.49;102569.69;5258740;28;20033;-78
2022/03/07 02:00:28;;;;;;;13.80;9.77;;;;;;;-2.65;80.01;102570.47;5258467;28;20029;-79
2022/03/07 02:03:01;;;;;;;18.43;10.67;;;;;;;-2.65;80.18;102565.38;5258540;28;20559;-78
2022/03/07 02:05:32;;;;;;;13.18;9.85;;;;;;;-2.66;80.24;102561.91;5257487;28;20059;-75
2022/03/07 02:08:04;;;;;;;17.10;10.77;;;;;;;-2.70;80.26;102564.19;5258535;28;20021;-77
2022/03/07 02:10:37;;;;;;;13.73;9.77;;;;;;;-2.80;81.02;102563.53;5258444;28;20032;-78
2022/03/07 02:13:17;;;;;;;14.30;10.57;;;;;;;-2.84;81.82;102565.75;5256659;28;20045;-78
2022/03/07 02:15:53;;;;;;;17.92;11.13;;;;;;;-2.88;82.00;102561.19;5257064;28;20033;-78
2022/03/07 02:18:24;;;;;;;20.33;10.43;;;;;;;-2.97;80.78;102553.78;5257021;28;20035;-76
2022/03/07 02:21:04;;;;;;;16.40;10.07;;;;;;;-2.91;81.30;102564.44;5258238;28;20041;-77
2022/03/07 02:23:36;;;;;;;14.82;10.15;;;;;;;-2.94;81.64;102554.88;5258343;28;20052;-75
2022/03/07 02:26:16;;;;;;;13.40;9.45;;;;;;;-2.96;81.49;102551.34;5259489;28;20112;-77
2022/03/07 02:28:47;;;;;;;14.77;9.63;;;;;;;-2.99;81.40;102551.13;5258611;28;20037;-76
2022/03/07 02:31:20;;;;;;;13.07;9.57;;;;;;;-2.97;81.53;102546.13;5256735;28;20057;-74
2022/03/07 02:33:52;;;;;;;13.00;9.77;;;;;;;-3.00;81.81;102549.34;5256972;28;20033;-77
2022/03/07 02:36:23;;;;;;;14.13;9.80;;;;;;;-3.01;82.04;102546.69;5258241;28;20376;-77
2022/03/07 02:38:55;;;;;;;14.57;10.43;;;;;;;-3.03;82.40;102546.56;5258655;28;20085;-76
2022/03/07 02:41:26;;;;;;;13.73;9.77;;;;;;;-3.05;82.74;102549.81;5256688;28;20200;-76
2022/03/07 02:43:58;;;;;;;13.07;9.43;;;;;;;-3.09;82.91;102551.25;5258361;28;20487;-76
2022/03/07 02:46:29;;;;;;;17.33;10.40;;;;;;;-3.12;83.04;102551.91;5257711;28;20021;-76
2022/03/07 02:49:01;;;;;;;12.30;9.93;;;;;;;-3.13;82.77;102554.34;5256256;28;20029;-78
2022/03/07 02:51:34;;;;;;;16.52;10.25;;;;;;;-3.18;82.36;102554.03;5257424;28;20025;-77
2022/03/07 02:54:05;;;;;;;13.88;9.77;;;;;;;-3.19;82.62;102549.72;5257819;28;20055;-77
2022/03/07 02:56:37;;;;;;;11.90;10.17;;;;;;;-3.19;82.73;102547.16;5257732;28;20029;-77
2022/03/07 02:59:11;;;;;;;13.02;10.05;;;;;;;-3.21;83.41;102551.25;5257478;28;20078;-78
2022/03/07 03:01:44;;;;;;;14.15;10.73;;;;;;;-3.27;83.34;102552.47;5257728;28;20025;-78
2022/03/07 03:04:17;;;;;;;13.43;10.70;;;;;;;-3.26;83.11;102544.06;5257522;28;20035;-78
2022/03/07 03:06:48;;;;;;;14.77;10.57;;;;;;;-3.31;83.99;102543.72;5256486;28;20025;-75
2022/03/07 03:09:22;;;;;;;14.90;10.27;;;;;;;-3.33;83.81;102542.75;5258694;28;20029;-78
2022/03/07 03:11:54;;;;;;;14.48;10.93;;;;;;;-3.39;84.20;102545.72;5257342;28;20429;-77
2022/03/07 03:14:25;;;;;;;15.93;9.93;;;;;;;-3.38;83.80;102544.06;5257254;28;20032;-77
2022/03/07 03:16:56;;;;;;;14.40;9.87;;;;;;;-3.41;84.03;102543.81;5256731;28;20064;-77
2022/03/07 03:19:28;;;;;;;16.80;11.80;;;;;;;-3.39;85.07;102543.16;5257039;28;20395;-75
2022/03/07 03:21:59;;;;;;;15.30;11.93;;;;;;;-3.50;84.78;102551.69;5256652;28;20039;-76
2022/03/07 03:24:31;;;;;;;13.63;11.03;;;;;;;-3.55;85.22;102548.81;5256986;28;20104;-76
2022/03/07 03:27:02;;;;;;;15.37;11.40;;;;;;;-3.52;85.00;102548.16;5255821;28;20021;-76
2022/03/07 03:29:34;;;;;;;16.40;11.03;;;;;;;-3.63;85.34;102556.69;5256771;28;20123;-77
2022/03/07 03:32:07;;;;;;;14.23;11.10;;;;;;;-3.60;85.88;102544.19;5256938;28;20469;-77
2022/03/07 03:34:38;;;;;;;20.00;11.65;;;;;;;-3.64;86.17;102555.78;5256863;28;20110;-78
2022/03/07 03:37:10;;;;;;;14.97;12.17;;;;;;;-3.66;86.37;102549.69;5256911;28;20056;-76
2022/03/07 03:39:41;;;;;;;23.67;14.17;;;;;;;-3.70;86.60;102553.69;5257107;28;20395;-78
2022/03/07 03:42:13;;;;;;;15.50;11.57;;;;;;;-3.64;86.54;102552.34;5256469;28;20166;-77
2022/03/07 03:44:44;;;;;;;18.63;12.57;;;;;;;-3.74;86.49;102554.22;5256955;28;20477;-77
2022/03/07 03:47:15;;;;;;;18.67;13.07;;;;;;;-3.69;86.59;102557.13;5256209;28;20087;-77
2022/03/07 03:49:47;;;;;;;21.50;13.93;;;;;;;-3.71;86.81;102564.66;5256049;28;20067;-76
2022/03/07 03:52:18;;;;;;;20.93;13.80;;;;;;;-3.74;87.00;102564.41;5256281;28;20116;-78
2022/03/07 03:54:50;;;;;;;17.17;12.63;;;;;;;-3.74;87.16;102554.22;5256339;28;20102;-77
2022/03/07 03:57:22;;;;;;;19.93;12.90;;;;;;;-3.75;87.15;102554.09;5256475;28;20163;-75
2022/03/07 03:59:53;;;;;;;21.25;12.50;;;;;;;-3.76;87.32;102560.88;5256395;28;20056;-75
2022/03/07 04:02:25;;;;;;;18.17;13.50;;;;;;;-3.77;87.48;102560.75;5256292;28;20132;-78
2022/03/07 04:04:58;;;;;;;18.95;12.25;;;;;;;-3.83;87.60;102563.75;5271209;28;20021;-75
2022/03/07 04:07:30;;;;;;;;;;;;;;;-3.87;86.92;102561.75;5269383;28;20032;-77
2022/03/07 04:10:01;;;;;;;19.15;11.45;;;;;;;-3.84;87.15;102569.63;5256514;28;20031;-77
2022/03/07 04:12:32;;;;;;;16.70;13.13;;;;;;;-3.93;87.41;102564.72;5256090;28;20055;-76
2022/03/07 04:15:05;;;;;;;21.70;12.07;;;;;;;-3.88;87.65;102565.97;5256133;28;20515;-76
2022/03/07 04:17:41;;;;;;;20.37;13.10;;;;;;;-3.95;87.90;102560.28;5255971;28;20033;-78
2022/03/07 04:20:13;;;;;;;20.08;13.07;;;;;;;-3.92;87.97;102563.94;5254688;28;20431;-74
2022/03/07 04:22:44;;;;;;;17.08;12.55;;;;;;;-3.93;88.29;102558.72;5256282;28;20032;-79
2022/03/07 04:25:16;;;;;;;20.63;13.37;;;;;;;-3.92;88.75;102563.06;5255902;28;20483;-76
2022/03/07 04:27:48;;;;;;;19.63;13.63;;;;;;;-3.95;88.53;102561.16;5255616;28;20032;-77
2022/03/07 04:30:19;;;;;;;19.70;13.38;;;;;;;-3.97;88.81;102564.38;5254542;28;20506;-77
2022/03/07 04:32:51;;;;;;;16.00;13.53;;;;;;;-4.00;89.22;102561.59;5270983;28;20025;-75
2022/03/07 04:35:23;;;;;;;19.80;14.00;;;;;;;-4.06;89.50;102556.91;5254548;28;20384;-75
2022/03/07 04:37:54;;;;;;;18.10;13.55;;;;;;;-4.04;89.63;102552.84;5256158;28;20032;-78
2022/03/07 04:40:26;;;;;;;20.67;13.67;;;;;;;-4.05;89.64;102557.03;5258196;28;20041;-75
2022/03/07 04:42:57;;;;;;;17.80;13.27;;;;;;;-4.05;90.09;102551.06;5256161;28;20029;-74
2022/03/07 04:45:28;;;;;;;15.83;13.87;;;;;;;-4.02;90.25;102548.75;5255907;28;20033;-74
2022/03/07 04:48:00;;;;;;;22.33;15.13;;;;;;;-4.09;90.32;102556.69;5254960;28;20036;-75
2022/03/07 04:50:31;;;;;;;18.93;13.90;;;;;;;-4.09;90.65;102560.16;5255664;28;20024;-73
2022/03/07 04:53:02;;;;;;;17.20;13.63;;;;;;;-4.10;90.83;102552.38;5255868;28;20041;-77
2022/03/07 04:55:34;;;;;;;16.27;13.13;;;;;;;-4.12;90.32;102548.81;5256035;28;20029;-76
2022/03/07 04:58:05;;;;;;;18.03;14.93;;;;;;;-4.10;90.96;102554.94;5255782;28;20033;-75
2022/03/07 05:00:37;;;;;;;21.30;16.10;;;;;;;-4.14;90.63;102558.88;5256220;28;20091;-75
2022/03/07 05:03:08;;;;;;;22.13;14.67;;;;;;;-4.13;90.45;102553.03;5255482;28;20115;-74
2022/03/07 05:05:42;;;;;;;19.53;14.53;;;;;;;-4.14;90.91;102556.34;5255421;28;20086;-74
2022/03/07 05:08:16;;;;;;;20.73;13.65;;;;;;;-4.15;90.95;102562.22;5255729;28;20091;-75
2022/03/07 05:10:47;;;;;;;18.42;12.50;;;;;;;-4.19;90.57;102560.19;5255739;28;20052;-75
2022/03/07 05:13:19;;;;;;;19.10;14.70;;;;;;;-4.22;90.86;102554.88;5255340;28;20037;-74
2022/03/07 05:15:50;;;;;;;22.60;14.90;;;;;;;-4.23;90.54;102555.66;5255746;28;20099;-75
2022/03/07 05:18:22;;;;;;;20.23;15.27;;;;;;;-4.26;90.77;102547.78;5255505;28;20469;-76
2022/03/07 05:20:53;;;;;;;23.00;14.60;;;;;;;-4.30;90.92;102553.41;5255428;28;20032;-74
2022/03/07 05:23:24;;;;;;;19.23;15.50;;;;;;;-4.30;91.29;102549.22;5255652;28;20040;-75
2022/03/07 05:25:56;;;;;;;18.83;13.97;;;;;;;-4.30;91.26;102551.78;5258957;28;20029;-75
2022/03/07 05:28:27;;;;;;;23.37;15.93;;;;;;;-4.34;91.56;102556.50;5258286;28;20071;-74
2022/03/07 05:30:58;;;;;;;19.43;14.90;;;;;;;-4.33;91.42;102543.00;5258008;28;20045;-76
2022/03/07 05:33:30;;;;;;;23.43;15.40;;;;;;;-4.37;91.70;102544.44;5259849;28;20104;-76
2022/03/07 05:36:01;;;;;;;19.37;14.73;;;;;;;-4.35;92.13;102550.50;5276800;28;20107;-76
2022/03/07 05:38:34;;;;;;;21.27;15.17;;;;;;;-4.38;92.22;102560.47;5270172;28;20029;-75
2022/03/07 05:41:05;;;;;;;21.60;15.65;;;;;;;-4.42;92.26;102561.00;5277527;28;20807;-77
2022/03/07 05:43:37;;;;;;;23.02;14.38;;;;;;;-4.40;91.57;102562.88;5277489;28;20052;-75
2022/03/07 05:46:09;;;;;;;21.43;16.03;;;;;;;-4.43;92.26;102559.22;5274189;28;20063;-74
2022/03/07 05:48:40;;;;;;;21.25;16.42;;;;;;;-4.44;91.65;102563.44;5275995;28;20029;-74
2022/03/07 05:51:12;;;;;;;21.73;16.10;;;;;;;-4.45;92.44;102563.31;5272062;28;20063;-73
2022/03/07 05:53:43;;;;;;;21.07;15.13;;;;;;;-4.43;92.13;102570.31;5271570;28;20175;-75
2022/03/07 05:56:16;;;;;;;21.80;15.70;;;;;;;-4.45;92.46;102550.59;5276699;28;20037;-75
2022/03/07 05:58:48;;;;;;;17.90;14.05;;;;;;;-4.43;92.35;102560.13;5275283;28;20068;-76
2022/03/07 06:01:19;;;;;;;24.23;16.30;;;;;;;-4.42;92.33;102564.44;5278081;28;20021;-75
2022/03/07 06:03:51;;;;;;;22.20;15.67;;;;;;;-4.41;92.59;102565.34;5278477;28;20036;-74
2022/03/07 06:06:22;;;;;;;21.37;15.90;;;;;;;-4.48;92.69;102568.16;5280371;28;20062;-75
2022/03/07 06:08:53;;;;;;;19.50;15.90;;;;;;;-4.48;92.79;102578.34;5275822;28;20041;-75
2022/03/07 06:11:25;;;;;;;21.93;17.13;;;;;;;-4.43;93.09;102577.03;5274594;28;20104;-74
2022/03/07 06:13:56;;;;;;;23.50;16.30;;;;;;;-4.43;92.97;102579.59;5275221;28;20124;-75
2022/03/07 06:16:28;;;;;;;26.97;16.67;;;;;;;-4.45;93.19;102582.00;5267928;28;20351;-76
2022/03/07 06:19:00;;;;;;;26.20;18.20;;;;;;;-4.46;93.60;102586.97;5263064;28;20067;-77
2022/03/07 06:21:31;;;;;;;21.87;17.27;;;;;;;-4.45;93.18;102588.78;5263551;28;20075;-75
2022/03/07 06:24:05;;;;;;;23.07;16.57;;;;;;;-4.41;93.23;102589.13;5263546;28;20029;-77
2022/03/07 06:26:36;;;;;;;21.88;17.05;;;;;;;-4.41;93.45;102596.78;5262627;28;20039;-76
2022/03/07 06:29:08;;;;;;;25.77;18.00;;;;;;;-4.43;93.22;102595.78;5263540;28;20025;-78
2022/03/07 06:31:39;;;;;;;22.53;16.67;;;;;;;-4.38;93.20;102600.31;5264017;28;20040;-75
2022/03/07 06:34:12;;;;;;;23.03;17.67;;;;;;;-4.33;93.02;102605.00;5261373;28;20273;-77
2022/03/07 06:36:44;;;;;;;27.27;17.33;;;;;;;-4.24;93.96;102607.34;5259598;28;20540;-75
2022/03/07 06:39:15;;;;;;;32.47;18.40;;;;;;;-4.22;93.93;102604.16;5260067;28;20081;-76
2022/03/07 06:41:47;;;;;;;23.77;18.37;;;;;;;-4.20;93.78;102609.38;5259295;28;20459;-76
2022/03/07 06:44:23;;;;;;;23.60;17.67;;;;;;;-4.17;94.22;102612.16;5258929;28;20287;-77
2022/03/07 06:46:54;;;;;;;22.38;17.17;;;;;;;-4.11;94.12;102612.59;5260734;28;20494;-76
2022/03/07 06:49:25;;;;;;;22.70;16.87;;;;;;;-4.13;93.67;102613.28;5259887;28;20061;-77
2022/03/07 06:51:57;;;;;;;26.27;18.70;;;;;;;-4.09;93.27;102611.09;5260777;28;20082;-76
2022/03/07 06:54:31;;;;;;;23.60;18.17;;;;;;;-4.03;93.22;102614.06;5265911;28;20492;-76
2022/03/07 06:57:03;;;;;;;22.88;18.15;;;;;;;-3.97;93.81;102617.88;5273006;28;20037;-74
2022/03/07 06:59:35;;;;;;;23.45;17.90;;;;;;;-3.91;93.93;102620.88;5265447;28;20036;-77
2022/03/07 07:02:07;;;;;;;24.33;18.37;;;;;;;-3.85;93.34;102613.69;5262562;28;20041;-75
2022/03/07 07:04:39;;;;;;;;;;;;;;;-3.86;93.21;102622.13;5261002;28;20032;-76
2022/03/07 07:07:10;;;;;;;23.67;18.20;;;;;;;-3.73;93.07;102616.28;5260185;28;19924;-75
2022/03/07 07:09:44;;;;;;;23.23;18.10;;;;;;;-3.64;93.60;102619.50;5259104;28;20053;-77
2022/03/07 07:12:15;;;;;;;29.65;18.90;;;;;;;-3.56;92.74;102610.78;5259150;28;20299;-75
2022/03/07 07:14:48;;;;;;;33.13;20.23;;;;;;;-3.47;92.95;102614.78;5258674;28;20617;-76
2022/03/07 07:17:19;;;;;;;23.38;18.75;;;;;;;-3.38;93.26;102615.44;5259521;28;20530;-76
2022/03/07 07:19:51;;;;;;;28.08;18.08;;;;;;;-3.30;92.52;102612.69;5259211;28;20041;-78
2022/03/07 07:22:23;;;;;;;23.77;18.13;;;;;;;-3.22;92.66;102612.34;5256494;28;20037;-75
2022/03/07 07:24:54;;;;;;;25.43;18.63;;;;;;;-3.13;92.12;102611.34;5260122;28;20475;-75
2022/03/07 07:27:32;;;;;;;20.47;17.60;;;;;;;-3.02;91.67;102611.25;5261071;28;20036;-76
2022/03/07 07:30:07;;;;;;;30.75;18.20;;;;;;;-2.90;91.24;102614.66;5258726;28;20029;-77
2022/03/07 07:32:39;;;;;;;24.08;18.85;;;;;;;-2.83;91.14;102609.25;5258118;28;20087;-76
2022/03/07 07:35:11;;;;;;;24.88;16.65;;;;;;;-2.67;90.80;102612.88;5256355;28;20048;-75
2022/03/07 07:37:42;;;;;;;22.67;16.43;;;;;;;-2.53;90.48;102606.19;5257422;28;20029;-76
2022/03/07 07:40:14;;;;;;;26.50;17.03;;;;;;;-2.40;89.96;102603.69;5257481;28;20474;-77
2022/03/07 07:42:46;;;;;;;18.87;15.57;;;;;;;-2.29;89.16;102609.56;5255027;28;20048;-77
2022/03/07 07:45:17;;;;;;;20.50;16.13;;;;;;;-2.14;88.61;102615.72;5255576;28;20395;-75
2022/03/07 07:47:49;;;;;;;17.37;15.13;;;;;;;-1.99;87.88;102617.56;5255896;28;20103;-75
2022/03/07 07:50:24;;;;;;;17.27;14.23;;;;;;;-1.84;86.72;102624.56;5256772;28;20029;-74
2022/03/07 07:52:57;;;;;;;21.75;14.98;;;;;;;-1.69;85.82;102621.28;5257094;28;20720;-74
2022/03/07 07:55:29;;;;;;;20.35;15.18;;;;;;;-1.51;85.92;102630.19;5255442;28;20384;-75
2022/03/07 07:58:02;;;;;;;20.83;13.57;;;;;;;-1.41;85.12;102628.22;5256898;28;20045;-75
2022/03/07 08:00:33;;;;;;;20.58;13.10;;;;;;;-1.25;84.24;102628.44;5262074;28;20025;-77
2022/03/07 08:03:04;;;;;;;17.63;13.33;;;;;;;-1.09;82.97;102630.31;5257235;28;20035;-74
2022/03/07 08:05:36;;;;;;;16.30;13.00;;;;;;;-0.95;81.99;102631.19;5259120;28;20025;-75
2022/03/07 08:08:07;;;;;;;17.43;12.00;;;;;;;-0.79;81.49;102623.72;5256126;28;20055;-76
2022/03/07 08:10:39;;;;;;;21.27;12.77;;;;;;;-0.62;80.68;102618.75;5256008;28;20036;-76
2022/03/07 08:13:11;;;;;;;17.33;12.43;;;;;;;-0.53;79.25;102621.91;5255572;28;20076;-75
2022/03/07 08:15:43;;;;;;;19.43;12.83;;;;;;;-0.34;78.53;102626.47;5256648;28;20036;-78
2022/03/07 08:18:15;;;;;;;18.33;12.77;;;;;;;-0.12;78.78;102628.66;5255856;28;20029;-77
2022/03/07 08:20:46;;;;;;;21.40;11.10;;;;;;;-0.01;76.94;102627.63;5256161;28;20031;-79
2022/03/07 08:23:17;;;;;;;21.97;11.77;;;;;;;0.22;75.95;102624.69;5255774;28;20072;-75
2022/03/07 08:25:49;;;;;;;21.10;10.90;;;;;;;0.38;74.85;102629.03;5254828;28;20051;-77
2022/03/07 08:28:20;;;;;;;15.33;10.77;;;;;;;0.51;73.66;102624.69;5255838;28;20047;-77
2022/03/07 08:30:51;;;;;;;16.60;10.40;;;;;;;0.67;72.76;102629.03;5256434;28;20029;-77
2022/03/07 08:33:23;;;;;;;14.80;10.73;;;;;;;0.94;71.30;102626.28;5264348;28;20480;-77
2022/03/07 08:35:55;;;;;;;14.60;10.67;;;;;;;1.19;70.01;102627.63;5256702;28;20087;-80
2022/03/07 08:38:27;;;;;;;14.00;10.85;;;;;;;1.51;69.48;102631.06;5255818;28;20029;-74
2022/03/07 08:40:58;;;;;;;12.77;9.37;;;;;;;1.77;67.71;102625.66;5255989;28;20017;-76
2022/03/07 08:43:31;;;;;;;13.00;9.90;;;;;;;2.11;66.78;102632.56;5255647;28;20037;-76
2022/03/07 08:46:02;;;;;;;;;;;;;;;2.50;66.55;102635.38;5254683;28;20036;-74
2022/03/07 08:48:34;;;;;;;10.45;8.30;;;;;;;2.47;64.71;102642.94;5256038;28;19916;-77
2022/03/07 08:51:05;;;;;;;10.87;8.33;;;;;;;2.64;62.21;102632.59;5259069;28;20032;-78
2022/03/07 08:53:37;;;;;;;10.70;8.57;;;;;;;2.79;61.65;102627.34;5255648;28;20028;-74
2022/03/07 08:56:08;;;;;;;11.90;7.97;;;;;;;3.03;61.19;102625.06;5255844;28;20021;-77
2022/03/07 08:58:46;;;;;;;12.13;7.57;;;;;;;3.24;58.90;102626.06;5257773;28;20033;-75
2022/03/07 09:01:30;;;;;;;12.55;7.75;;;;;;;3.45;57.95;102613.28;5259580;28;20025;-76
2022/03/07 09:04:03;;;;;;;11.10;7.40;;;;;;;3.78;57.73;102614.75;5259337;28;20036;-75
2022/03/07 09:06:37;;;;;;;12.52;7.30;;;;;;;3.95;57.15;102608.63;5259626;28;20159;-75
2022/03/07 09:09:09;;;;;;;8.90;6.78;;;;;;;4.20;55.72;102609.69;5257891;28;20407;-74
2022/03/07 09:11:40;;;;;;;9.25;7.13;;;;;;;4.39;55.15;102601.03;5259648;28;20049;-75
2022/03/07 09:14:12;;;;;;;8.53;6.47;;;;;;;4.69;53.73;102604.00;5259200;28;20453;-75
2022/03/07 09:16:43;;;;;;;9.73;6.27;;;;;;;4.86;52.66;102615.03;5259482;28;20064;-76
2022/03/07 09:19:14;;;;;;;9.07;6.33;;;;;;;5.03;50.72;102599.31;5259607;28;20051;-76
2022/03/07 09:21:46;;;;;;;15.27;9.33;;;;;;;5.33;51.31;102609.03;5259327;28;20353;-74
2022/03/07 09:24:18;;;;;;;8.97;5.87;;;;;;;5.53;48.60;102602.06;5260080;28;20032;-75
2022/03/07 09:26:49;;;;;;;11.83;5.80;;;;;;;5.82;47.70;102605.69;5259239;28;20036;-76
2022/03/07 09:29:20;;;;;;;8.83;6.20;;;;;;;6.07;47.46;102610.09;5259463;28;20456;-76
2022/03/07 09:31:52;;;;;;;6.47;4.97;;;;;;;6.07;45.58;102599.72;5258733;28;20024;-76
2022/03/07 09:34:24;;;;;;;14.23;5.07;;;;;;;6.13;45.95;102599.06;5259185;28;20029;-76
2022/03/07 09:36:57;;;;;;;8.33;4.63;;;;;;;6.32;44.87;102596.25;5259882;28;20271;-78
2022/03/07 09:39:28;;;;;;;7.15;4.28;;;;;;;6.41;44.32;102593.13;5265993;28;20065;-75
2022/03/07 09:42:01;;;;;;;10.53;4.63;;;;;;;6.77;44.11;102592.53;5263034;28;20059;-76
2022/03/07 09:44:32;;;;;;;10.35;4.93;;;;;;;6.90;44.36;102583.44;5259237;28;20147;-77
2022/03/07 09:47:04;;;;;;;6.87;4.40;;;;;;;6.80;42.72;102587.47;5259872;28;20527;-77
2022/03/07 09:49:35;;;;;;;9.10;5.22;;;;;;;6.85;42.93;102595.38;5261589;28;20064;-76
2022/03/07 09:52:07;;;;;;;10.60;5.23;;;;;;;7.28;42.11;102594.13;5272136;28;20526;-75
2022/03/07 09:54:40;;;;;;;10.93;4.57;;;;;;;7.53;41.61;102587.03;5267169;28;20025;-75
2022/03/07 09:57:12;;;;;;;13.60;4.40;;;;;;;7.28;40.78;102582.03;5262243;28;20044;-77
2022/03/07 09:59:44;;;;;;;11.97;5.37;;;;;;;7.58;40.49;102583.75;5266633;28;20029;-76
2022/03/07 10:02:22;;;;;;;8.90;3.83;;;;;;;8.27;41.58;102582.13;5258816;28;20560;-78
2022/03/07 10:05:00;;;;;;;9.70;4.47;;;;;;;8.18;39.21;102574.13;5259576;28;20501;-75
2022/03/07 10:07:43;;;;;;;8.23;3.95;;;;;;;8.54;39.05;102570.72;5258427;28;20032;-76
2022/03/07 10:10:14;;;;;;;7.97;3.90;;;;;;;8.56;37.42;102563.81;5257533;28;20059;-77
2022/03/07 10:12:48;;;;;;;6.07;3.47;;;;;;;8.62;37.85;102568.31;5258892;28;20045;-77
2022/03/07 10:15:22;;;;;;;5.32;3.15;;;;;;;8.76;38.59;102559.97;5258487;28;20074;-76
2022/03/07 10:17:54;;;;;;;9.35;3.75;;;;;;;8.87;36.65;102561.94;5258076;28;20438;-77
2022/03/07 10:20:26;;;;;;;11.35;3.53;;;;;;;9.43;36.14;102562.28;5258624;28;20021;-77
2022/03/07 10:23:01;;;;;;;8.50;3.30;;;;;;;9.43;36.52;102564.00;5256720;28;20056;-76
2022/03/07 10:25:33;;;;;;;7.22;3.55;;;;;;;9.35;35.69;102562.97;5258309;28;20029;-77
2022/03/07 10:28:05;;;;;;;13.47;3.47;;;;;;;10.13;34.58;102569.69;5258866;28;20526;-77
2022/03/07 10:30:38;;;;;;;8.23;4.15;;;;;;;10.08;34.29;102560.94;5258949;28;20743;-75
2022/03/07 10:33:13;;;;;;;6.90;3.20;;;;;;;10.36;33.73;102562.28;5257922;28;20396;-77
2022/03/07 10:35:53;;;;;;;4.93;2.72;;;;;;;10.15;34.27;102557.56;5258915;28;20032;-77
2022/03/07 10:38:29;;;;;;;6.50;3.28;;;;;;;10.28;34.31;102563.00;5258387;28;20021;-75
2022/03/07 10:41:01;;;;;;;6.90;3.78;;;;;;;10.63;33.52;102554.91;5258799;28;20472;-77
2022/03/07 10:43:33;;;;;;;5.93;3.47;;;;;;;11.13;32.41;102552.13;5258067;28;20086;-76
2022/03/07 10:46:05;;;;;;;5.82;4.10;;;;;;;11.16;32.91;102546.97;5258893;28;20201;-77
2022/03/07 10:48:42;;;;;;;5.63;3.38;;;;;;;11.36;32.54;102543.72;5258964;28;20040;-76
2022/03/07 10:51:20;;;;;;;6.72;3.55;;;;;;;11.34;32.50;102535.88;5257876;28;20114;-76
2022/03/07 10:53:53;;;;;;;5.20;3.17;;;;;;;11.93;31.38;102510.38;5262882;28;20795;-75
2022/03/07 10:56:25;;;;;;;6.97;3.38;;;;;;;12.55;30.77;102517.00;5262207;28;20132;-77
2022/03/07 10:58:57;;;;;;;6.47;3.83;;;;;;;12.68;30.90;102505.72;5258778;28;20052;-77
2022/03/07 11:01:33;;;;;;;5.77;3.40;;;;;;;13.26;30.11;102514.75;5258802;28;20064;-77
2022/03/07 11:04:04;;;;;;;8.80;3.97;;;;;;;12.81;28.86;102505.81;5257023;28;20483;-76
2022/03/07 11:06:39;;;;;;;5.87;3.83;;;;;;;13.10;28.94;102511.19;5258749;28;20061;-77
2022/03/07 11:09:10;;;;;;;10.88;4.80;;;;;;;13.03;28.95;102505.06;5263753;28;20029;-77
2022/03/07 11:11:42;;;;;;;8.83;3.40;;;;;;;13.25;28.84;102495.56;5259056;28;20480;-76
2022/03/07 11:14:15;;;;;;;8.17;3.23;;;;;;;13.65;28.23;102489.56;5258084;28;20104;-75
2022/03/07 11:16:51;;;;;;;6.60;3.50;;;;;;;13.49;28.64;102486.91;5255278;28;20356;-75
2022/03/07 11:19:24;;;;;;;5.57;3.47;;;;;;;13.89;28.03;102485.22;5257716;28;20476;-77
2022/03/07 11:21:56;;;;;;;8.13;3.63;;;;;;;14.12;27.51;102491.34;5256934;28;20453;-77
2022/03/07 11:24:28;;;;;;;6.15;3.70;;;;;;;14.27;26.75;102486.97;5257606;28;20025;-78
2022/03/07 11:27:03;;;;;;;8.73;4.13;;;;;;;13.76;27.75;102487.81;5256662;28;20569;-77
2022/03/07 11:29:40;;;;;;;5.50;3.70;;;;;;;13.63;27.63;102478.19;5257560;28;20064;-78
2022/03/07 11:32:14;;;;;;;7.95;3.83;;;;;;;13.70;28.36;102479.09;5256982;28;20041;-76
2022/03/07 11:34:57;;;;;;;6.75;3.97;;;;;;;14.01;27.81;102466.88;5257384;28;20431;-78
2022/03/07 11:37:31;;;;;;;5.88;3.00;;;;;;;14.90;26.49;102456.22;5260256;28;20075;-78
2022/03/07 11:40:16;;;;;;;7.57;3.72;;;;;;;14.84;26.68;102458.00;5261771;28;20029;-75